Date,TemperatureHighF,TemperatureAvgF,TemperatureLowF,DewpointHighF,DewpointAvgF,DewpointLowF,HumidityHigh,HumidityAvg,HumidityLow,PressureMaxIn,PressureMinIn,WindSpeedMaxMPH,WindSpeedAvgMPH,GustSpeedMaxMPH,PrecipitationSumIn
2013-2-16,35,31,30,24,14,-100,67,53,41,29.91,29.82,8,-35,0,0.00
2013-2-17,30,21,15,18,8,0,91,59,35,29.90,29.55,18,6,0,0.00
2013-2-18,32,21,12,3,-3,-8,54,37,20,30.32,29.90,13,6,0,0.00
2013-2-19,43,32,20,40,15,-6,99,54,23,30.33,29.71,6,1,0,0.00
2013-2-20,38,32,25,37,22,13,99,68,46,29.92,29.65,11,4,0,0.00
2013-2-21,33,26,21,16,11,6,67,55,38,30.34,29.89,11,4,0,0.00
2013-2-22,46,30,18,22,18,14,86,62,32,30.53,30.33,11,1,0,0.00
2013-2-23,39,32,27,33,28,22,99,85,67,30.43,30.03,5,0,0,0.00
2013-2-24,35,32,29,34,32,28,99,99,99,30.02,29.79,3,1,0,0.00
2013-2-25,50,33,25,33,29,25,99,88,49,30.27,29.96,3,0,0,0.00
2013-2-26,44,35,29,34,30,29,99,85,59,30.38,30.20,2,0,0,0.00
2013-2-27,39,34,31,37,33,29,99,96,80,30.21,29.60,11,3,0,0.00
2013-2-28,46,38,32,37,34,32,99,87,65,29.63,29.54,10,2,0,0.00
2013-3-1,41,35,30,32,29,28,98,81,61,29.72,29.55,11,2,0,0.00
2013-3-2,50,36,28,31,28,26,97,76,41,29.72,29.64,6,1,0,0.00
2013-3-3,45,35,30,36,31,25,99,84,68,29.70,29.62,6,1,0,0.00
2013-3-4,38,33,29,25,23,20,75,67,55,29.80,29.62,13,4,0,0.00
2013-3-5,48,37,29,33,27,21,85,69,50,30.16,29.81,8,2,0,0.00
2013-3-6,38,35,32,34,31,27,99,85,70,30.26,30.16,16,5,0,0.00
2013-3-7,36,32,31,31,27,24,94,80,67,30.23,30.08,16,8,0,0.00
2013-3-8,46,39,28,29,22,18,99,53,34,30.21,30.05,16,7,0,0.00
2013-3-9,59,39,26,27,22,16,97,55,21,30.38,30.20,14,2,0,0.00
2013-3-10,50,34,20,31,27,20,99,79,45,30.43,30.30,6,1,0,0.00
2013-3-11,55,40,30,38,33,29,99,78,38,30.32,30.12,8,1,0,0.00
2013-3-12,47,43,39,46,42,38,99,98,93,30.14,29.71,22,2,0,0.00
2013-3-13,56,42,31,46,34,22,99,74,40,29.75,29.67,8,2,0,0.00
2013-3-14,39,31,20,26,18,4,93,62,42,29.80,29.65,11,3,0,0.00
2013-3-15,42,28,17,30,10,2,98,51,25,29.82,29.61,11,4,0,0.00
2013-3-16,40,30,21,29,15,8,99,58,30,29.90,29.65,6,1,0,0.00
2013-3-17,35,26,18,14,6,-2,76,44,25,30.32,29.89,13,3,0,0.00
2013-3-18,41,26,10,23,8,-3,80,50,20,30.45,30.25,8,1,0,0.00
2013-3-19,35,30,24,33,29,24,99,97,75,30.24,29.67,2,0,0,0.00
2013-3-20,39,30,22,28,22,18,99,77,50,29.78,29.66,13,2,0,0.00
2013-3-21,50,31,15,24,18,12,95,65,23,29.79,29.61,6,1,0,0.00
2013-3-22,46,33,25,24,19,15,91,58,28,29.71,29.59,6,1,0,0.00
2013-3-23,45,34,24,23,20,17,76,57,35,29.74,29.60,18,4,0,0.00
2013-3-24,56,39,28,25,23,21,76,54,28,29.81,29.72,13,2,0,0.00
2013-3-25,49,36,24,32,27,21,87,69,49,29.78,29.58,10,2,0,0.00
2013-3-26,54,41,31,26,21,17,72,48,25,29.77,29.57,10,3,0,0.00
2013-3-27,58,41,26,35,26,20,94,59,29,29.89,29.73,8,2,0,0.00
2013-3-28,51,41,34,35,31,24,99,70,38,30.01,29.87,6,1,0,0.00
2013-3-29,60,45,32,36,31,27,88,60,32,30.04,29.97,8,2,0,0.00
2013-3-30,60,45,33,30,23,13,78,47,18,30.10,30.00,6,2,0,0.00
2013-3-31,58,42,24,38,24,15,83,54,25,30.13,29.81,11,2,0,0.00
2013-4-1,61,45,33,44,36,12,99,74,38,29.82,29.50,11,4,0,0.00
2013-4-2,42,33,28,16,11,7,47,39,28,29.88,29.75,16,6,0,0.00
2013-4-3,46,36,28,14,9,4,53,35,19,30.11,29.87,14,6,0,0.00
2013-4-4,56,42,28,19,13,8,52,32,16,30.25,30.00,13,4,0,0.00
2013-4-5,64,46,36,28,23,16,69,42,16,30.00,29.65,11,4,0,0.00
2013-4-6,47,35,27,19,6,-2,50,31,15,30.34,29.87,18,5,0,0.00
2013-4-7,57,41,22,36,23,10,73,51,29,30.34,29.98,14,4,0,0.00
2013-4-8,67,50,36,40,35,28,99,62,24,30.14,29.93,10,2,0,0.00
2013-4-9,62,49,41,48,41,36,98,77,46,30.10,29.89,10,2,0,0.00
2013-4-10,60,49,43,51,45,41,99,88,63,30.02,29.88,6,1,0,0.00
2013-4-11,51,45,41,45,38,22,99,80,46,30.17,29.87,6,2,0,0.00
2013-4-12,41,35,33,35,30,19,99,82,45,30.23,29.86,6,3,0,0.00
2013-4-13,52,40,33,38,36,33,99,84,54,29.94,29.78,8,2,0,0.00
2013-4-14,58,44,36,39,34,27,99,71,35,30.21,29.90,10,2,0,0.00
2013-4-15,59,43,28,36,32,27,98,70,29,30.41,30.20,13,2,0,0.00
2013-4-16,63,50,32,51,41,32,99,75,47,30.41,30.01,24,4,0,0.00
2013-4-17,68,56,41,53,33,27,84,45,24,30.34,30.01,13,4,0,0.00
2013-4-18,59,47,30,38,31,25,90,56,31,30.47,30.16,13,3,0,0.00
2013-4-19,78,62,48,62,53,39,96,75,48,30.17,29.64,18,4,0,0.00
2013-4-20,67,53,41,64,38,18,99,63,33,30.19,29.60,13,5,0,0.00
2013-4-21,57,42,30,27,21,17,83,45,24,30.69,30.20,10,3,0,0.00
2013-4-22,55,41,28,34,27,18,90,61,28,30.79,30.63,10,2,0,0.00
2013-4-23,41,37,31,40,35,28,99,93,83,30.63,30.18,8,3,0,0.00
2013-4-24,74,52,41,54,46,40,99,83,48,30.16,29.79,11,4,0,0.00
2013-4-25,66,56,41,51,36,26,96,50,23,30.29,29.79,11,4,0,0.00
2013-4-26,64,48,31,37,31,26,92,57,30,30.45,30.28,6,1,0,0.00
2013-4-27,68,49,30,39,34,30,99,62,30,30.43,30.31,13,2,0,0.00
2013-4-28,70,51,33,39,35,31,95,59,26,30.35,30.25,10,2,0,0.00
2013-4-29,71,52,36,47,38,32,96,63,34,30.28,30.20,10,2,0,0.00
2013-4-30,73,53,35,40,31,17,95,51,16,30.39,30.25,11,2,0,0.00
2013-5-1,74,53,31,37,32,27,90,51,19,30.48,30.38,8,2,0,0.00
2013-5-2,79,50,37,46,38,34,92,66,21,30.52,30.39,11,2,0,0.00
2013-5-3,67,51,39,45,40,35,93,68,43,30.55,30.39,10,2,0,0.00
2013-5-4,67,49,35,45,38,34,99,71,37,30.40,30.33,10,2,0,0.00
2013-5-5,65,47,29,42,36,29,99,72,38,30.36,30.27,14,2,0,0.00
2013-5-6,70,49,30,48,41,30,99,80,36,30.30,30.18,10,2,0,0.00
2013-5-7,80,59,44,56,50,44,99,76,33,30.20,30.11,6,2,0,0.00
2013-5-8,76,61,47,63,56,47,99,84,59,30.24,30.10,13,2,0,0.00
2013-5-9,63,57,54,60,56,54,99,98,90,30.10,29.91,3,1,0,0.00
2013-5-10,80,62,54,63,56,53,99,83,47,29.97,29.91,10,1,0,0.00
2013-5-11,69,60,52,64,59,52,99,94,80,29.93,29.71,8,2,0,0.00
2013-5-12,73,61,49,61,50,26,99,73,37,29.79,29.56,8,2,0,0.00
2013-5-13,59,49,41,33,30,26,66,48,31,30.03,29.79,11,4,0,0.00
2013-5-14,64,49,34,38,32,23,94,56,23,30.05,29.94,10,2,0,0.00
2013-5-15,68,50,34,51,41,32,97,76,29,30.05,29.68,11,2,0,0.00
2013-5-16,82,63,43,53,42,34,99,57,20,29.82,29.61,10,3,0,0.00
2013-5-17,70,58,48,43,40,35,81,53,29,30.22,29.83,8,2,0,0.00
2013-5-18,72,54,41,48,44,40,96,73,33,30.32,30.22,6,1,0,0.00
2013-5-19,64,53,50,52,49,48,99,87,61,30.38,30.25,5,0,0,0.00
2013-5-20,80,63,50,64,58,50,99,84,54,30.23,29.94,5,1,0,0.00
2013-5-21,62,55,48,58,53,48,99,93,80,30.10,29.95,6,2,0,0.00
2013-5-22,59,53,49,55,52,49,99,96,84,30.03,29.90,5,1,0,0.00
2013-5-23,68,58,50,68,58,49,99,98,90,29.95,29.80,5,1,0,0.00
2013-5-24,73,62,51,69,61,50,99,97,82,29.84,29.66,10,2,0,0.00
2013-5-25,52,48,40,51,48,40,99,98,92,29.85,29.69,14,4,0,0.00
2013-5-26,59,48,40,44,40,38,99,76,50,30.04,29.65,10,3,0,0.00
2013-5-27,72,55,38,42,37,31,98,57,24,30.18,30.05,13,2,0,0.00
2013-5-28,75,57,39,47,40,35,98,62,26,30.26,30.17,11,1,0,0.00
2013-5-29,62,56,48,61,55,47,99,98,91,30.20,30.01,5,0,0,0.00
2013-5-30,89,72,56,70,61,55,99,75,39,30.06,30.00,11,1,0,0.00
2013-5-31,97,78,60,69,65,60,99,70,34,30.08,29.90,5,1,0,0.00
2013-6-1,97,80,64,72,66,61,99,68,32,29.94,29.81,6,2,0,0.00
2013-6-2,94,78,67,73,68,62,99,75,38,29.84,29.67,11,2,0,0.00
2013-6-3,80,70,59,69,63,49,99,81,47,29.83,29.72,10,2,0,0.00
2013-6-4,69,60,50,50,44,41,87,58,39,30.09,29.79,10,2,0,0.00
2013-6-5,79,61,47,50,46,37,94,62,23,30.19,30.08,6,1,0,0.00
2013-6-6,74,61,52,56,50,44,93,71,35,30.22,30.14,3,1,0,0.00
2013-6-7,54,52,51,54,52,51,99,99,99,30.10,29.96,5,2,0,0.00
2013-6-8,74,66,59,62,60,58,96,80,66,29.99,29.84,5,1,0,0.00
2013-6-9,82,67,54,61,56,53,99,72,40,30.16,29.98,5,1,0,0.00
2013-6-10,71,61,52,58,56,52,99,85,59,30.22,30.05,5,1,0,0.00
2013-6-11,60,56,54,57,55,53,99,97,87,30.05,29.58,6,2,0,0.00
2013-6-12,67,60,54,60,56,53,99,86,69,29.81,29.56,11,2,0,0.00
2013-6-13,72,59,51,59,55,50,99,87,53,29.82,29.73,5,0,0,0.00
2013-6-14,77,62,53,60,55,50,99,80,43,29.76,29.68,6,1,0,0.00
2013-6-15,80,66,55,54,49,42,95,60,27,29.92,29.77,10,2,0,0.00
2013-6-16,76,63,50,61,56,49,98,79,49,29.93,29.71,6,1,0,0.00
2013-6-17,87,68,58,65,60,57,99,79,41,29.89,29.76,5,1,0,0.00
2013-6-18,67,61,56,62,59,56,99,93,74,29.98,29.91,5,0,0,0.00
2013-6-19,78,63,52,58,52,46,99,73,38,30.09,29.93,6,1,0,0.00
2013-6-20,80,68,48,57,51,45,98,59,33,30.26,30.20,6,2,0,0.00
2013-6-21,88,74,54,62,57,50,99,61,30,30.24,30.18,5,1,0,0.00
2013-6-22,87,70,57,74,65,56,99,86,54,30.20,30.09,5,0,0,0.00
2013-6-23,89,73,64,76,68,64,99,87,60,30.14,29.94,6,1,0,0.00
2013-6-24,95,78,68,73,69,65,99,78,44,29.97,29.84,5,1,0,0.00
2013-6-25,93,77,67,74,70,66,99,81,50,29.90,29.71,5,1,0,0.00
2013-6-26,78,69,59,73,68,58,99,97,80,29.87,29.70,3,0,0,0.00
2013-6-27,70,62,57,67,61,57,99,97,87,29.88,29.80,3,1,0,0.00
2013-6-28,71,62,55,70,61,55,99,99,94,29.80,29.51,5,2,0,0.00
2013-6-29,84,73,65,75,69,65,99,88,62,29.70,29.52,8,1,0,0.00
2013-6-30,89,76,65,76,70,65,99,85,54,29.91,29.70,6,1,0,0.00
2013-7-1,80,72,68,75,71,67,99,96,77,30.07,29.91,6,0,0,0.00
2013-7-2,74,65,58,74,65,58,99,99,99,30.21,30.06,6,1,0,0.00
2013-7-3,88,70,58,79,68,58,99,91,71,30.21,30.08,5,1,0,0.00
2013-7-4,94,81,69,80,74,69,99,80,54,30.17,30.04,6,1,0,0.00
2013-7-5,96,82,71,77,74,70,99,79,51,30.13,29.99,8,1,0,0.00
2013-7-6,91,79,73,75,73,68,99,83,54,30.04,29.94,5,1,0,0.00
2013-7-7,92,81,69,74,71,68,99,74,49,29.99,29.88,5,0,0,0.00
2013-7-8,79,72,64,73,68,63,99,87,69,30.03,29.91,5,1,0,0.00
2013-7-9,73,68,63,68,66,63,99,93,81,30.11,30.06,2,0,0,0.00
2013-7-10,76,66,62,74,66,62,99,99,94,30.09,29.80,3,0,0,0.00
2013-7-11,81,76,72,76,74,72,99,94,81,29.84,29.78,3,1,0,0.00
2013-7-12,83,73,66,64,61,60,83,69,48,30.13,30.04,13,4,0,0.00
2013-7-13,83,75,60,66,64,60,99,70,51,30.31,30.25,3,1,0,0.00
2013-7-14,90,80,67,76,73,66,99,78,58,30.27,30.17,3,1,0,0.00
2013-7-15,94,78,68,75,71,67,99,82,48,30.18,30.06,5,0,0,0.00
2013-7-16,94,78,67,76,70,66,99,80,44,30.15,30.09,6,1,0,0.00
2013-7-17,96,77,68,78,72,67,99,86,47,30.15,29.95,13,2,0,0.00
2013-7-18,91,78,70,76,72,69,99,83,58,29.98,29.93,5,2,0,0.00
2013-7-19,97,86,69,79,75,69,99,72,49,29.87,29.66,6,3,0,0.00
2013-7-20,94,84,71,76,70,66,86,64,50,29.75,29.61,10,2,0,0.00
2013-7-21,82,73,64,66,64,59,99,75,48,29.98,29.88,6,1,0,0.00
2013-7-22,78,68,63,71,66,63,99,93,76,30.03,29.89,5,0,0,0.00
2013-7-23,72,67,64,71,66,64,99,99,97,29.90,29.54,3,1,0,0.00
2013-7-24,88,72,61,74,65,54,99,81,57,29.95,29.56,6,1,0,0.00
2013-7-25,71,62,57,60,56,51,99,80,61,30.10,29.95,5,1,0,0.00
2013-7-26,73,66,60,66,64,60,99,94,79,30.06,29.90,6,1,0,0.00
2013-7-27,87,70,59,69,64,58,99,83,39,30.02,29.94,6,1,0,0.00
2013-7-28,71,66,62,70,66,62,99,98,94,30.02,29.98,3,1,0,0.00
2013-7-29,83,68,63,72,66,63,99,94,68,30.04,29.95,5,1,0,0.00
2013-7-30,82,69,58,67,60,54,99,78,44,30.06,30.00,6,1,0,0.00
2013-7-31,84,68,56,64,60,56,99,79,48,30.12,30.02,5,1,0,0.00
2013-8-1,84,67,56,68,62,56,99,86,52,30.02,29.87,5,1,0,0.00
2013-8-2,84,71,64,71,64,57,99,82,43,29.86,29.74,5,1,0,0.00
2013-8-3,82,72,60,64,60,56,99,69,49,29.80,29.74,5,1,0,0.00
2013-8-4,82,66,56,62,57,54,98,73,45,29.86,29.75,5,1,0,0.00
2013-8-5,78,63,52,54,50,45,95,66,36,30.03,29.84,8,2,0,0.00
2013-8-6,81,63,48,59,52,46,99,71,37,30.15,30.02,5,1,0,0.00
2013-8-7,82,65,50,62,56,50,99,76,41,30.18,30.11,11,1,0,0.00
2013-8-8,86,71,61,74,66,56,99,85,66,30.11,29.98,6,1,0,0.00
2013-8-9,72,70,69,71,70,69,99,98,95,30.00,29.94,6,1,0,0.00
2013-8-10,83,74,59,68,57,51,93,57,38,30.00,29.84,6,2,0,0.00
2013-8-11,82,67,53,60,55,52,97,69,40,30.05,29.97,3,1,0,0.00
2013-8-12,85,75,56,63,60,55,99,62,43,29.99,29.90,3,1,0,0.00
2013-8-13,73,70,60,68,66,60,99,87,77,29.85,29.69,3,0,0,0.00
2013-8-14,76,69,63,63,56,51,99,66,47,29.75,29.65,10,4,0,0.00
2013-8-18,81,72,64,68,66,63,99,81,59,30.23,30.05,3,1,0,0.00
2013-8-19,83,70,57,67,62,57,99,80,53,30.05,29.91,3,1,0,0.00
2013-8-20,90,70,59,70,65,58,99,86,49,30.06,29.94,2,0,0,0.00
2013-8-21,92,73,60,72,66,60,99,83,43,30.11,29.97,5,1,0,0.00
2013-8-22,92,75,61,71,67,61,99,78,46,29.99,29.78,3,1,0,0.00
2013-8-23,84,71,58,69,59,50,94,68,40,30.11,29.78,6,1,0,0.00
2013-8-24,85,63,50,54,51,46,94,68,29,30.30,30.12,6,1,0,0.00
2013-8-25,83,64,48,60,55,48,99,77,40,30.35,30.14,10,1,0,0.00
2013-8-26,82,69,60,70,65,58,99,87,64,30.14,29.84,5,1,0,0.00
2013-8-27,91,73,64,73,67,64,99,84,52,29.88,29.82,5,1,0,0.00
2013-8-28,89,70,60,74,65,60,99,87,55,29.99,29.84,5,1,0,0.00
2013-8-29,68,64,62,65,63,61,99,94,83,30.08,29.95,6,1,0,0.00
2013-8-30,88,71,61,70,65,61,99,85,55,30.00,29.77,6,1,0,0.00
2013-8-31,84,74,67,75,71,67,99,90,75,29.81,29.74,0,0,0,0.00
2013-9-1,84,74,70,74,71,69,99,93,68,29.86,29.74,0,0,0,0.00
2013-9-2,74,70,68,73,70,67,99,99,95,29.85,29.71,3,0,0,0.00
2013-9-3,83,71,62,74,69,62,99,92,69,29.75,29.67,5,1,0,0.00
2013-9-4,83,68,58,62,60,56,99,78,44,29.87,29.74,5,1,0,0.00
2013-9-5,74,62,50,61,54,42,99,79,44,30.13,29.84,6,1,0,0.00
2013-9-6,73,56,42,50,45,41,98,73,33,30.23,30.05,8,1,0,0.00
2013-9-7,82,62,47,60,53,47,99,77,36,30.05,29.82,3,1,0,0.00
2013-9-8,72,62,48,60,51,42,88,68,43,30.07,29.71,11,2,0,0.00
2013-9-9,75,55,40,52,46,40,99,76,39,30.22,30.07,5,1,0,0.00
2013-9-10,72,63,52,69,61,50,99,93,84,30.13,30.01,5,1,0,0.00
2013-9-11,97,79,68,79,73,67,99,84,53,30.04,29.89,8,1,0,0.00
2013-9-12,82,70,66,75,69,65,99,96,77,29.91,29.67,19,1,0,0.00
2013-9-13,74,65,56,72,64,56,99,98,90,29.73,29.57,3,0,0,0.00
2013-9-14,74,60,52,62,56,50,99,86,57,30.02,29.72,5,1,0,0.00
2013-9-15,75,57,45,55,51,45,99,82,44,30.13,30.01,3,1,0,0.00
2013-9-16,69,57,44,58,52,37,99,84,62,30.25,29.98,6,1,0,0.00
2013-9-17,69,51,38,49,42,36,99,75,39,30.41,30.25,5,1,0,0.00
2013-9-18,78,56,40,55,48,40,99,80,36,30.30,30.10,5,1,0,0.00
2013-9-19,81,59,43,60,51,43,99,80,39,30.13,30.02,5,0,0,0.00
2013-9-20,83,60,45,62,53,45,99,83,41,30.10,30.00,3,0,0,0.00
2013-9-21,76,62,52,66,59,52,99,91,68,30.02,29.74,10,1,0,0.00
2013-9-22,74,64,51,66,58,44,99,83,52,29.79,29.59,8,2,0,0.00
2013-9-23,65,52,42,46,43,40,93,73,50,29.98,29.79,8,2,0,0.00
2013-9-24,67,51,41,49,44,40,98,79,44,29.96,29.81,6,1,0,0.00
2013-9-25,64,52,40,52,47,39,99,85,58,29.99,29.86,6,1,0,0.00
2013-9-26,73,57,45,54,50,44,97,79,49,30.13,29.99,5,1,0,0.00
2013-9-27,75,59,50,58,53,50,99,81,55,30.25,30.13,5,1,0,0.00
2013-9-28,79,57,46,60,52,46,99,85,47,30.33,30.24,5,0,0,0.00
2013-9-29,74,52,40,56,47,40,99,86,44,30.27,30.12,5,0,0,0.00
2013-9-30,44,41,39,44,41,38,99,99,99,30.13,30.09,2,0,0,0.00
2013-11-3,52,38,29,30,19,-100,62,49,36,30.13,29.93,6,-32,0,0.00
2013-11-4,46,32,24,21,17,15,79,56,32,30.24,30.13,6,0,0,0.00
2013-11-5,52,34,21,33,27,18,95,76,43,30.18,29.91,8,0,0,0.00
2013-11-6,62,47,32,48,40,30,97,79,52,29.91,29.46,10,1,0,0.00
2013-11-7,61,51,37,58,47,32,94,86,72,29.46,29.20,8,1,0,0.00
2013-11-8,48,40,33,33,28,23,82,63,44,29.69,29.40,8,1,0,0.00
2013-11-9,44,38,30,30,24,21,75,57,44,29.83,29.69,8,1,0,0.00
2013-11-10,46,40,35,42,37,29,99,88,73,29.71,29.44,2,0,0,0.00
2013-11-11,52,43,37,35,30,28,77,61,41,29.82,29.53,8,1,0,0.00
2013-11-12,44,34,27,33,21,15,75,60,53,29.93,29.62,11,1,0,0.00
2013-11-13,38,28,22,16,13,11,71,54,38,30.05,29.89,6,0,0,0.00
2013-11-14,52,36,27,30,24,14,89,61,41,29.89,29.78,8,1,0,0.00
2013-11-15,56,37,26,27,25,22,93,66,27,29.96,29.88,3,0,0,0.00
2013-11-16,62,39,28,32,28,26,95,69,30,30.11,29.96,5,0,0,0.00
2013-11-17,52,42,27,52,42,26,99,98,95,30.11,29.64,3,0,0,0.00
2013-11-18,68,56,46,60,48,33,99,76,44,29.62,29.27,11,2,0,0.00
2013-11-19,46,37,30,33,22,16,67,53,39,30.06,29.42,16,3,0,0.00
2013-11-20,45,32,22,18,15,12,81,52,32,30.43,30.07,6,1,0,0.00
2013-11-21,50,31,18,24,17,11,93,62,22,30.43,30.13,5,0,0,0.00
2013-11-22,40,36,29,39,34,22,99,91,73,30.13,29.57,0,0,0,0.00
2013-11-23,44,37,28,40,26,17,99,66,37,29.65,29.52,19,4,0,0.00
2013-11-24,27,22,18,21,6,0,76,48,39,29.92,29.53,16,4,0,0.00
2013-11-25,34,23,16,13,1,-7,52,39,18,30.12,29.93,8,1,0,0.00
2013-11-26,36,32,27,32,24,13,98,74,52,30.12,29.89,0,0,0,0.00
2013-11-27,59,47,32,59,46,32,99,98,88,29.87,29.00,11,2,0,0.00
2013-11-28,36,30,20,32,16,7,88,58,39,30.24,29.18,11,3,0,0.00
2013-11-29,34,22,13,11,8,6,80,56,33,30.56,30.24,6,0,0,0.00
2013-11-30,38,21,8,22,14,6,91,75,46,30.62,30.23,5,0,0,0.00
2013-12-1,35,33,28,35,31,22,99,93,75,30.22,29.81,0,0,0,0.00
2013-12-2,39,36,34,38,36,34,99,99,96,29.81,29.71,6,0,0,0.00
2013-12-3,48,37,27,41,35,27,99,93,72,29.71,29.64,5,0,0,0.00
2013-12-4,41,32,26,30,27,24,99,84,64,30.00,29.71,3,0,0,0.00
2013-12-5,38,34,25,37,33,25,99,96,89,30.04,29.71,0,0,0,0.00
2013-12-6,47,41,34,46,38,30,99,89,63,29.95,29.65,6,0,0,0.00
2013-12-7,40,32,22,33,24,14,99,75,48,30.24,29.87,13,1,0,0.00
2013-12-8,30,25,19,18,15,12,83,66,47,30.39,30.24,3,0,0,0.00
2013-12-9,32,28,25,31,25,16,99,89,64,30.32,29.66,2,0,0,0.00
2013-12-10,34,28,19,32,27,17,99,95,85,29.74,29.56,2,0,0,0.00
2013-12-11,33,24,16,19,16,15,95,75,51,29.96,29.75,5,0,0,0.00
2013-12-12,26,16,8,18,6,-1,89,65,37,30.06,29.82,6,0,0,0.00
2013-12-13,30,16,6,17,7,-3,86,69,54,30.21,29.75,3,0,0,0.00
2013-12-14,16,10,4,9,1,-4,92,69,46,30.44,30.07,5,0,0,0.00
2013-12-15,23,17,11,22,15,9,96,94,92,30.05,29.22,13,1,0,0.00
2013-12-16,31,18,9,18,9,-1,96,69,34,30.00,29.49,11,1,0,0.00
2013-12-17,16,8,-6,11,2,-11,93,77,52,30.09,29.79,2,0,0,0.00
2013-12-18,39,24,13,25,18,11,93,79,49,29.83,29.66,10,0,0,0.00
2013-12-19,42,30,18,26,22,16,93,74,49,29.90,29.73,5,0,0,0.00
2013-12-20,45,35,27,34,30,23,96,81,58,29.93,29.70,3,0,0,0.00
2013-12-21,51,39,33,41,37,32,99,91,68,29.75,29.64,2,0,0,0.00
2013-12-22,41,32,29,40,32,28,99,98,97,29.87,29.67,5,1,0,0.00
2013-12-23,33,31,28,33,31,28,99,99,97,29.91,29.78,2,0,0,0.00
2013-12-24,38,29,19,32,22,10,99,76,53,30.00,29.85,6,0,0,0.00
2013-12-25,27,15,8,10,5,-1,85,65,42,30.36,30.00,10,2,0,0.00
2013-12-26,28,19,10,25,16,7,96,89,81,30.31,29.88,2,0,0,0.00
2013-12-27,34,21,8,25,17,6,96,84,61,30.04,29.96,5,0,0,0.00
2013-12-28,42,30,14,31,24,12,94,80,61,29.99,29.76,5,1,0,0.00
2013-12-29,40,32,25,34,30,24,98,90,72,29.82,29.28,14,1,0,0.00
2013-12-30,40,28,11,35,22,2,99,79,59,29.98,29.31,11,2,0,0.00
2013-12-31,21,10,3,5,2,-1,87,70,43,29.98,29.83,2,0,0,0.00
2014-1-1,28,14,2,9,5,-1,91,70,43,30.20,29.94,8,1,0,0.00
2014-1-2,15,4,-4,9,0,-7,87,83,69,30.19,29.74,16,4,0,0.00